Terminal Aerodrome Forecast
Issued by NWS Buffalo, NY

Home | Current Version | Previous Version | Text Only | Print | Product List | Glossary On
Versions: 1 2 3 4 5 6 7 8 9 10 11 12 13 14 15 16 17 18 19 20 21 22 23 24 25 26 27
000
FTUS41 KBUF 241500 AAA
TAFROC
TAF AMD
KROC 241501Z 2415/2512 27011KT P6SM FEW250
     FM250000 26006KT P6SM SCT200
     FM250400 25006KT P6SM BKN200
     FM251100 23006KT P6SM BKN035=

USA.gov is the U.S. government's official web portal to all federal, state and local government web resources and services.